createdAt,value
2022-10-02T00:03:12.286Z,100228.54
2022-10-02T00:06:28.918Z,100221.55
2022-10-02T00:10:21.662Z,100221.22
2022-10-02T00:13:50.259Z,100223.25
2022-10-02T00:17:23.125Z,100227.70
2022-10-02T00:21:30.410Z,100222.77
2022-10-02T00:24:58.605Z,100228.52
2022-10-02T00:28:40.419Z,100228.52
2022-10-02T00:32:15.291Z,100234.81
2022-10-02T00:35:36.388Z,100225.95
2022-10-02T00:39:30.323Z,100229.88
2022-10-02T00:43:11.357Z,100229.42
2022-10-02T00:46:33.821Z,100220.89
2022-10-02T00:50:06.550Z,100222.34
2022-10-02T00:53:56.874Z,100216.34
2022-10-02T00:57:28.485Z,100217.70
2022-10-02T01:01:14.352Z,100214.82
2022-10-02T01:04:37.080Z,100217.32
2022-10-02T01:08:05.184Z,100221.73
2022-10-02T01:11:41.840Z,100222.27
2022-10-02T01:15:21.165Z,100221.98
2022-10-02T01:18:55.394Z,100222.20
2022-10-02T01:22:36.379Z,100221.58
2022-10-02T01:26:09.404Z,100216.52
2022-10-02T01:29:49.837Z,100220.75
2022-10-02T01:33:23.254Z,100217.10
2022-10-02T01:36:59.497Z,100219.80
2022-10-02T01:40:39.132Z,100228.60
2022-10-02T01:44:14.766Z,100224.77
2022-10-02T01:48:01.397Z,100231.45
2022-10-02T01:51:45.026Z,100230.36
2022-10-02T01:55:11.294Z,100233.67
2022-10-02T01:59:08.620Z,100234.40
2022-10-02T02:02:41.929Z,100235.08
2022-10-02T02:05:55.348Z,100235.25
2022-10-02T02:09:59.439Z,100233.52
2022-10-02T02:13:38.163Z,100232.83
2022-10-02T02:16:56.295Z,100237.26
2022-10-02T02:20:31.222Z,100242.52
2022-10-02T02:24:07.992Z,100245.88
2022-10-02T02:27:46.356Z,100245.55
2022-10-02T02:31:21.720Z,100246.64
2022-10-02T02:35:02.241Z,100249.79
2022-10-02T02:38:53.129Z,100248.34
2022-10-02T02:42:13.601Z,100248.88
2022-10-02T02:45:50.691Z,100248.88
2022-10-02T02:49:20.307Z,100245.53
2022-10-02T02:53:04.505Z,100241.86
2022-10-02T02:56:34.917Z,100239.61
2022-10-02T03:00:12.751Z,100238.40
2022-10-02T03:03:47.878Z,100241.92
2022-10-02T03:07:24.272Z,100248.80
2022-10-02T03:11:15.983Z,100247.23
2022-10-02T03:14:59.499Z,100249.88
2022-10-02T03:18:48.374Z,100248.52
2022-10-02T03:22:26.674Z,100248.17
2022-10-02T03:29:27.188Z,100253.10
2022-10-02T03:32:53.842Z,100257.52
2022-10-02T03:36:30.260Z,100258.26
2022-10-02T03:40:06.955Z,100255.98
2022-10-02T03:43:42.886Z,100257.42
2022-10-02T03:47:19.570Z,100254.79
2022-10-02T03:50:56.153Z,100253.03
2022-10-02T03:54:39.324Z,100256.73
2022-10-02T03:58:14.595Z,100257.27
2022-10-02T04:01:52.235Z,100263.98
2022-10-02T04:05:26.882Z,100262.25
2022-10-02T04:09:09.394Z,100262.26
2022-10-02T04:12:42.045Z,100263.30
2022-10-02T04:16:19.044Z,100263.65
2022-10-02T04:20:12.751Z,100266.64
2022-10-02T04:23:33.478Z,100270.15
2022-10-02T04:27:16.162Z,100268.37
2022-10-02T04:30:41.522Z,100269.95
2022-10-02T04:34:17.850Z,100272.79
2022-10-02T04:38:07.525Z,100281.95
2022-10-02T04:41:56.013Z,100283.71
2022-10-02T04:45:45.228Z,100279.69
2022-10-02T04:52:28.749Z,100284.95
2022-10-02T04:56:05.825Z,100291.30
2022-10-02T05:00:02.879Z,100284.63
2022-10-02T05:03:37.324Z,100284.65
2022-10-02T05:07:07.350Z,100282.89
2022-10-02T05:10:36.370Z,100292.36
2022-10-02T05:14:09.192Z,100298.50
2022-10-02T05:18:21.419Z,100301.09
2022-10-02T05:21:49.294Z,100303.52
2022-10-02T05:25:29.771Z,100312.13
2022-10-02T05:28:48.856Z,100318.12
2022-10-02T05:32:34.631Z,100320.06
2022-10-02T05:35:53.515Z,100319.88
2022-10-02T05:39:37.653Z,100319.88
2022-10-02T05:43:15.745Z,100317.63
2022-10-02T05:46:50.072Z,100319.36
2022-10-02T05:50:33.904Z,100325.88
2022-10-02T05:54:04.984Z,100330.05
2022-10-02T05:57:57.467Z,100336.51
2022-10-02T06:01:18.019Z,100329.98
2022-10-02T06:04:57.635Z,100333.92
2022-10-02T06:09:20.284Z,100340.23
2022-10-02T06:12:31.750Z,100347.23
2022-10-02T06:16:10.953Z,100346.01
2022-10-02T06:19:41.155Z,100345.85
2022-10-02T06:23:18.682Z,100345.95
2022-10-02T06:27:15.820Z,100343.61
2022-10-02T06:30:25.558Z,100345.31
2022-10-02T06:34:02.048Z,100347.19
2022-10-02T06:37:54.057Z,100348.02
2022-10-02T06:41:36.901Z,100352.09
2022-10-02T06:44:59.267Z,100350.60
2022-10-02T06:48:48.646Z,100349.33
2022-10-02T06:52:24.831Z,100353.91
2022-10-02T06:55:59.602Z,100359.34
2022-10-02T06:59:32.043Z,100363.55
2022-10-02T07:03:31.355Z,100363.11
2022-10-02T07:06:57.853Z,100363.80
2022-10-02T07:10:18.294Z,100370.63
2022-10-02T07:13:49.496Z,100366.84
2022-10-02T07:17:41.892Z,100372.64
2022-10-02T07:21:39.765Z,100365.86
2022-10-02T07:25:25.713Z,100373.70
2022-10-02T07:28:44.302Z,100377.15
2022-10-02T07:32:39.551Z,100385.09
2022-10-02T07:36:17.981Z,100385.89
2022-10-02T07:39:29.212Z,100382.59
2022-10-02T07:43:13.156Z,100390.02
2022-10-02T07:47:07.210Z,100392.52
2022-10-02T07:50:37.119Z,100394.71
2022-10-02T07:53:55.793Z,100390.38
2022-10-02T07:57:44.637Z,100393.55
2022-10-02T08:01:11.346Z,100395.30
2022-10-02T08:04:39.733Z,100396.31
2022-10-02T08:08:25.254Z,100398.20
2022-10-02T08:11:58.173Z,100399.66
2022-10-02T08:15:36.219Z,100400.71
2022-10-02T08:19:14.143Z,100404.76
2022-10-02T08:22:48.213Z,100414.00
2022-10-02T08:26:38.771Z,100415.98
2022-10-02T08:30:03.850Z,100421.95
2022-10-02T08:33:32.921Z,100414.98
2022-10-02T08:37:46.724Z,100417.44
2022-10-02T08:41:04.350Z,100424.90
2022-10-02T08:45:02.511Z,100422.07
2022-10-02T08:48:23.390Z,100430.45
2022-10-02T08:52:16.702Z,100428.38
2022-10-02T08:55:22.192Z,100424.33
2022-10-02T08:59:12.883Z,100426.63
2022-10-02T09:03:10.703Z,100421.36
2022-10-02T09:06:48.776Z,100422.17
2022-10-02T09:10:27.611Z,100430.99
2022-10-02T09:14:10.402Z,100425.55
2022-10-02T09:17:41.170Z,100430.52
2022-10-02T09:21:12.735Z,100428.70
2022-10-02T09:24:56.333Z,100422.16
2022-10-02T09:28:01.342Z,100425.02
2022-10-02T09:32:07.239Z,100420.27
2022-10-02T09:35:49.066Z,100423.67
2022-10-02T09:39:02.990Z,100424.50
2022-10-02T09:42:57.402Z,100424.84
2022-10-02T09:46:55.665Z,100434.31
2022-10-02T09:50:28.784Z,100430.73
2022-10-02T09:53:56.682Z,100434.34
2022-10-02T09:57:28.565Z,100438.73
2022-10-02T10:01:07.886Z,100434.40
2022-10-02T10:05:06.034Z,100436.10
2022-10-02T10:08:08.922Z,100442.49
2022-10-02T10:12:15.271Z,100440.95
2022-10-02T10:15:58.045Z,100447.01
2022-10-02T10:19:34.860Z,100447.34
2022-10-02T10:22:39.120Z,100451.83
2022-10-02T10:30:09.990Z,100450.50
2022-10-02T10:33:44.031Z,100453.56
2022-10-02T10:37:26.866Z,100448.68
2022-10-02T10:41:20.059Z,100446.27
2022-10-02T10:44:25.930Z,100449.58
2022-10-02T10:48:14.822Z,100448.44
2022-10-02T10:51:54.625Z,100447.82
2022-10-02T10:55:15.580Z,100448.70
2022-10-02T11:03:30.999Z,100454.60
2022-10-02T11:06:43.968Z,100458.77
2022-10-02T11:10:23.806Z,100457.29
2022-10-02T11:14:05.850Z,100458.95
2022-10-02T11:17:48.559Z,100465.04
2022-10-02T11:21:16.232Z,100470.64
2022-10-02T11:24:56.812Z,100471.96
2022-10-02T11:28:39.760Z,100482.80
2022-10-02T11:32:14.561Z,100483.11
2022-10-02T11:35:52.239Z,100477.65
2022-10-02T11:39:28.697Z,100482.23
2022-10-02T11:42:57.465Z,100476.70
2022-10-02T11:46:40.767Z,100482.48
2022-10-02T11:50:11.507Z,100481.17
2022-10-02T11:53:38.516Z,100484.44
2022-10-02T11:57:22.948Z,100485.98
2022-10-02T12:01:17.669Z,100489.19
2022-10-02T12:04:37.189Z,100498.45
2022-10-02T12:08:08.183Z,100500.04
2022-10-02T12:11:47.724Z,100488.77
2022-10-02T12:15:47.805Z,100493.60
2022-10-02T12:18:56.818Z,100490.79
2022-10-02T12:22:59.176Z,100481.10
2022-10-02T12:26:31.931Z,100481.45
2022-10-02T12:30:19.235Z,100482.55
2022-10-02T12:33:21.620Z,100482.30
2022-10-02T12:37:06.445Z,100489.45
2022-10-02T12:41:10.053Z,100490.27
2022-10-02T12:44:58.444Z,100490.39
2022-10-02T12:48:07.387Z,100490.55
2022-10-02T12:51:39.921Z,100487.14
2022-10-02T12:55:40.936Z,100485.54
2022-10-02T12:58:55.565Z,100490.63
2022-10-02T13:03:00.305Z,100490.02
2022-10-02T13:06:23.890Z,100490.25
2022-10-02T13:09:48.825Z,100490.70
2022-10-02T13:13:42.683Z,100486.44
2022-10-02T13:17:10.443Z,100493.39
2022-10-02T13:20:39.177Z,100486.80
2022-10-02T13:24:24.781Z,100492.61
2022-10-02T13:28:22.735Z,100483.52
2022-10-02T13:31:47.347Z,100476.27
2022-10-02T13:35:36.946Z,100476.13
2022-10-02T13:39:04.012Z,100479.23
2022-10-02T13:42:53.250Z,100477.06
2022-10-02T13:46:19.018Z,100485.21
2022-10-02T13:50:12.213Z,100476.75
2022-10-02T13:53:36.063Z,100483.28
2022-10-02T13:57:23.722Z,100486.11
2022-10-02T14:00:37.496Z,100490.75
2022-10-02T14:04:15.439Z,100498.23
2022-10-02T14:07:52.018Z,100492.26
2022-10-02T14:11:33.332Z,100493.07
2022-10-02T14:15:10.425Z,100492.60
2022-10-02T14:19:03.937Z,100484.92
2022-10-02T14:22:36.616Z,100486.02
2022-10-02T14:25:49.266Z,100480.75
2022-10-02T14:29:49.810Z,100475.02
2022-10-02T14:33:30.091Z,100472.88
2022-10-02T14:37:05.331Z,100479.08
2022-10-02T14:40:19.604Z,100480.35
2022-10-02T14:44:06.153Z,100478.59
2022-10-02T14:48:07.655Z,100483.98
2022-10-02T14:51:44.472Z,100479.86
2022-10-02T14:55:16.356Z,100480.50
2022-10-02T14:58:35.915Z,100479.88
2022-10-02T15:02:10.223Z,100479.92
2022-10-02T15:05:35.048Z,100484.34
2022-10-02T15:09:30.597Z,100489.73
2022-10-02T15:12:51.685Z,100490.91
2022-10-02T15:17:13.623Z,100489.72
2022-10-02T15:20:54.517Z,100494.12
2022-10-02T15:23:58.753Z,100489.32
2022-10-02T15:28:24.351Z,100481.35
2022-10-02T15:31:41.875Z,100479.59
2022-10-02T15:35:05.438Z,100479.85
2022-10-02T15:39:13.739Z,100480.29
2022-10-02T15:42:37.625Z,100480.70
2022-10-02T15:45:50.401Z,100474.75
2022-10-02T15:49:45.763Z,100475.13
2022-10-02T15:53:47.062Z,100478.18
2022-10-02T15:57:08.603Z,100477.01
2022-10-02T16:00:24.295Z,100465.83
2022-10-02T16:04:15.355Z,100466.20
2022-10-02T16:07:48.010Z,100468.54
2022-10-02T16:11:48.370Z,100472.61
2022-10-02T16:15:26.517Z,100476.89
2022-10-02T16:18:52.204Z,100482.77
2022-10-02T16:22:18.316Z,100478.06
2022-10-02T16:25:52.394Z,100477.43
2022-10-02T16:29:32.868Z,100485.75
2022-10-02T16:33:29.399Z,100481.27
2022-10-02T16:36:32.286Z,100476.23
2022-10-02T16:40:42.807Z,100478.55
2022-10-02T16:43:48.863Z,100478.95
2022-10-02T16:47:50.544Z,100476.70
2022-10-02T16:51:36.292Z,100476.39
2022-10-02T16:55:10.977Z,100478.00
2022-10-02T16:58:26.467Z,100477.86
2022-10-02T17:02:19.245Z,100477.35
2022-10-02T17:06:00.855Z,100476.14
2022-10-02T17:09:23.207Z,100470.88
2022-10-02T17:13:33.277Z,100474.92
2022-10-02T17:18:09.788Z,100475.98
2022-10-02T17:22:25.032Z,100481.30
2022-10-02T17:26:35.642Z,100481.16
2022-10-02T17:30:55.473Z,100482.05
2022-10-02T17:34:59.550Z,100476.63
2022-10-02T17:39:04.492Z,100471.34
2022-10-02T17:43:25.193Z,100483.96
2022-10-02T17:47:38.320Z,100485.72
2022-10-02T17:51:58.619Z,100489.59
2022-10-02T17:56:33.293Z,100486.96
2022-10-02T18:00:36.047Z,100482.29
2022-10-02T18:04:50.873Z,100480.56
2022-10-02T18:09:24.412Z,100475.48
2022-10-02T18:14:21.494Z,100476.55
2022-10-02T18:18:44.196Z,100473.40
2022-10-02T18:22:50.581Z,100475.52
2022-10-02T18:27:18.761Z,100475.16
2022-10-02T18:31:55.132Z,100475.35
2022-10-02T18:36:28.035Z,100484.11
2022-10-02T18:40:46.304Z,100486.23
2022-10-02T18:45:28.278Z,100484.33
2022-10-02T18:50:04.375Z,100469.23
2022-10-02T18:54:11.004Z,100462.91
2022-10-02T18:58:27.626Z,100465.17
2022-10-02T19:02:28.942Z,100465.86
2022-10-02T19:06:35.583Z,100467.11
2022-10-02T19:10:34.786Z,100463.97
2022-10-02T19:14:41.738Z,100467.14
2022-10-02T19:19:12.408Z,100464.52
2022-10-02T19:23:23.432Z,100463.60
2022-10-02T19:27:37.953Z,100464.27
2022-10-02T19:31:39.994Z,100463.38
2022-10-02T19:35:44.586Z,100460.73
2022-10-02T19:39:51.128Z,100466.02
2022-10-02T19:44:00.583Z,100457.95
2022-10-02T19:48:18.219Z,100460.40
2022-10-02T19:52:36.153Z,100454.42
2022-10-02T19:56:43.727Z,100456.34
2022-10-02T20:00:42.837Z,100453.73
2022-10-02T20:04:41.493Z,100448.64
2022-10-02T20:08:45.320Z,100447.42
2022-10-02T20:13:40.508Z,100446.02
2022-10-02T20:17:39.564Z,100448.30
2022-10-02T20:21:42.713Z,100451.42
2022-10-02T20:25:51.144Z,100453.35
2022-10-02T20:29:56.122Z,100452.11
2022-10-02T20:34:01.930Z,100458.08
2022-10-02T20:38:31.785Z,100457.37
2022-10-02T20:43:25.762Z,100455.08
2022-10-02T20:47:49.185Z,100457.17
2022-10-02T20:52:15.946Z,100454.71
2022-10-02T20:56:25.817Z,100452.06
2022-10-02T21:00:29.074Z,100451.89
2022-10-02T21:05:10.436Z,100453.96
2022-10-02T21:09:35.732Z,100456.23
2022-10-02T21:14:07.556Z,100452.35
2022-10-02T21:18:48.127Z,100451.65
2022-10-02T21:23:09.239Z,100449.70
2022-10-02T21:27:07.874Z,100444.95
2022-10-02T21:31:15.643Z,100446.00
2022-10-02T21:35:39.225Z,100447.58
2022-10-02T21:39:55.752Z,100449.67
2022-10-02T21:44:23.676Z,100454.70
2022-10-02T21:48:51.484Z,100449.55
2022-10-02T21:53:26.579Z,100445.08
2022-10-02T21:57:49.833Z,100447.45
2022-10-02T22:02:28.305Z,100447.22
2022-10-02T22:06:51.168Z,100450.17
2022-10-02T22:11:09.835Z,100447.36
2022-10-02T22:15:12.165Z,100443.98
2022-10-02T22:19:32.601Z,100444.13
2022-10-02T22:23:59.641Z,100450.60
2022-10-02T22:28:22.794Z,100455.00
2022-10-02T22:33:08.931Z,100459.59
2022-10-02T22:38:00.567Z,100457.88
2022-10-02T22:42:20.769Z,100452.84
2022-10-02T22:46:47.923Z,100448.98
2022-10-02T22:50:58.343Z,100448.14
2022-10-02T22:55:07.075Z,100447.23
2022-10-02T22:59:22.498Z,100447.20
2022-10-02T23:03:47.054Z,100446.41
2022-10-02T23:08:06.105Z,100445.48
2022-10-02T23:12:16.464Z,100448.41
2022-10-02T23:16:35.416Z,100449.57
2022-10-02T23:20:44.659Z,100450.80
2022-10-02T23:25:16.159Z,100450.61
2022-10-02T23:29:35.564Z,100444.79
2022-10-02T23:33:56.733Z,100444.23
2022-10-02T23:38:04.746Z,100448.05
2022-10-02T23:42:09.451Z,100450.48
2022-10-02T23:46:15.194Z,100455.55
2022-10-02T23:50:48.948Z,100455.30
2022-10-02T23:55:14.276Z,100455.99
2022-10-02T23:59:26.401Z,100453.49
